Latest Weather Observations for Clermont Airport

IDQ60801

Issued at 9:02 am EST Saturday 20 December 2014 (issued every 30 minutes, with the page automatically refreshed every 10 minutes)

About weather observations | Map of weather stations | Latest weather observations for QLD | Other Formats
Station Details ID: 035124 Name: CLERMONT AIRPORT Lat: -22.78 Lon: 147.62 Height: 270.27 m
Data from the previous 72 hours. | See also: Recent months at Clermont Airport
Date/Time
EST
Temp
°C
App
Temp
°C
Dew
Point
Rel
Hum
%
Delta-T
°C
Wind Press
QNH
hPa
Press
MSL
hPa
Rain
since 9 am
mm
Dir
 
Spd
km/h
Gust
km/h
Spd
kts
Gust
kts
20/09:00am 27.7 30.2 19.0 59 5.7 E 4 9 2 5 1015.0 1013.2 0.0
20/08:30am 26.4 28.9 19.8 67 4.3 SE 6 9 3 5 1014.9 1013.1 0.0
20/08:00am 25.6 28.7 20.2 72 3.6 SSE 4 6 2 3 1014.5 1012.6 0.0
20/07:30am 23.9 27.2 20.0 79 2.5 SSW 2 4 1 2 1014.5 1012.6 0.0
20/07:00am 22.3 25.4 19.5 84 1.8 SSW 2 4 1 2 1014.3 1012.4 0.0
20/06:30am 20.4 23.5 18.7 90 1.1 CALM 0 0 0 0 1013.9 1012.1 0.0
20/06:00am 19.7 22.8 18.7 94 0.6 CALM 0 0 0 0 1013.5 1011.7 0.0
20/05:30am 18.4 21.0 17.4 94 0.6 CALM 0 0 0 0 1013.0 1011.2 0.0
20/05:00am 18.7 21.4 17.7 94 0.6 CALM 0 0 0 0 1012.6 1010.8 0.0
20/04:30am 18.9 21.7 17.9 94 0.6 CALM 0 0 0 0 1012.3 1010.5 0.0
20/04:00am 19.3 22.2 18.3 94 0.6 CALM 0 0 0 0 1012.2 1010.4 0.0
20/03:30am 19.5 22.5 18.5 94 0.6 CALM 0 0 0 0 1012.1 1010.3 0.0
20/03:00am 19.5 22.4 18.3 93 0.8 CALM 0 0 0 0 1012.0 1010.2 0.0
20/02:30am 19.8 22.1 18.6 93 0.8 W 4 6 2 3 1012.1 1010.3 0.0
20/02:00am 20.1 23.3 18.9 93 0.8 CALM 0 0 0 0 1012.3 1010.5 0.0
20/01:30am 20.3 23.6 19.1 93 0.8 CALM 0 0 0 0 1012.5 1010.7 0.0
20/01:00am 20.7 24.2 19.5 93 0.8 CALM 0 0 0 0 1012.9 1011.1 0.0
20/12:30am 20.8 24.3 19.5 92 0.8 CALM 0 0 0 0 1013.3 1011.5 0.0
20/12:00am 21.3 25.1 20.1 93 0.8 CALM 0 0 0 0 1013.6 1011.8 0.0
 
Date/Time
EST
Temp
°C
App
Temp
°C
Dew
Point
Rel
Hum
%
Delta-T
°C
Wind Press
QNH
hPa
Press
MSL
hPa
Rain
since 9 am
mm
Dir
 
Spd
km/h
Gust
km/h
Spd
kts
Gust
kts
19/11:30pm 21.4 25.1 19.9 91 1.0 CALM 0 0 0 0 1013.8 1012.0 0.0
19/11:00pm 21.7 25.5 20.2 91 1.0 CALM 0 0 0 0 1014.0 1012.2 0.0
19/10:30pm 22.1 26.1 20.6 91 1.0 CALM 0 0 0 0 1014.3 1012.4 0.0
19/10:00pm 22.2 26.2 20.5 90 1.1 CALM 0 0 0 0 1014.3 1012.4 0.0
19/09:30pm 22.7 26.7 20.6 88 1.4 CALM 0 0 0 0 1014.3 1012.4 0.0
19/09:00pm 23.0 26.9 20.3 85 1.8 CALM 0 0 0 0 1014.0 1012.2 0.0
19/08:30pm 23.8 27.7 20.3 81 2.3 CALM 0 0 0 0 1013.7 1011.9 0.0
19/08:00pm 24.6 27.7 20.3 77 2.8 S 4 6 2 3 1013.4 1011.6 0.0
19/07:30pm 25.4 28.6 19.8 71 3.7 SSE 2 4 1 2 1013.1 1011.3 0.0
19/07:00pm 26.1 28.8 19.5 67 4.3 SSE 4 6 2 3 1012.9 1011.1 0.0
19/06:30pm 26.9 29.2 19.5 64 4.8 SSE 6 9 3 5 1012.7 1010.9 0.0
19/06:00pm 27.5 29.4 19.0 59 5.5 SSE 7 11 4 6 1012.5 1010.7 0.0
19/05:30pm 27.8 30.2 19.6 61 5.4 SE 6 11 3 6 1012.4 1010.6 0.0
19/05:00pm 27.3 29.6 19.4 62 5.2 SE 6 11 3 6 1012.2 1010.4 0.0
19/04:30pm 27.5 29.9 19.6 62 5.2 SSE 6 11 3 6 1012.1 1010.3 0.0
19/04:00pm 27.6 29.9 19.4 61 5.4 S 6 9 3 5 1012.2 1010.4 0.0
19/03:30pm 27.4 29.7 19.5 62 5.2 SSE 6 11 3 6 1012.4 1010.6 0.0
19/03:00pm 27.3 29.6 19.4 62 5.2 S 6 13 3 7 1012.6 1010.8 0.0
19/02:30pm 28.5 30.9 20.0 60 5.6 SSE 7 11 4 6 1012.8 1011.0 0.0
19/02:00pm 27.1 29.5 20.0 65 4.7 SSE 7 13 4 7 1013.2 1011.4 0.0
19/01:30pm 26.4 28.3 19.0 63 4.8 SSE 7 13 4 7 1013.6 1011.8 0.0
19/01:00pm 26.4 28.6 19.3 65 4.6 SSE 6 11 3 6 1013.8 1012.0 0.0
19/12:30pm 26.5 28.9 19.6 66 4.5 SE 6 9 3 5 1014.3 1012.4 0.0
19/12:00pm 25.8 27.4 19.2 67 4.3 S 9 17 5 9 1014.6 1012.7 0.0
19/11:30am 25.3 27.5 19.7 71 3.7 SE 7 13 4 7 1014.9 1013.1 0.0
19/11:00am 24.7 26.5 19.5 73 3.4 SE 9 13 5 7 1015.1 1013.3 0.0
19/10:30am 24.0 25.7 19.3 75 3.0 SE 9 15 5 8 1015.2 1013.4 0.0
19/10:00am 23.8 25.1 19.3 76 2.9 SE 11 17 6 9 1015.0 1013.2 0.0
19/09:30am 23.2 24.9 19.4 79 2.5 SE 9 17 5 9 1014.9 1013.1 0.0
19/09:00am 23.1 25.5 20.1 83 2.0 SE 7 13 4 7 1014.9 1013.1 8.2
19/08:30am 22.8 24.7 19.8 83 1.9 SE 9 13 5 7 1015.0 1013.2 8.2
19/08:00am 22.4 24.4 19.9 86 1.6 SE 9 13 5 7 1014.6 1012.7 8.2
19/07:30am 22.2 24.6 20.1 88 1.4 SSE 7 13 4 7 1014.2 1012.3 8.2
19/07:00am 21.9 24.3 20.0 89 1.2 S 7 11 4 6 1013.7 1011.9 8.2
19/06:30am 21.7 24.7 20.0 90 1.1 SSE 4 7 2 4 1013.3 1011.5 8.2
19/06:00am 21.6 24.0 20.1 91 1.0 S 7 9 4 5 1013.1 1011.3 8.2
19/05:30am 21.4 24.4 20.0 92 0.9 SE 4 6 2 3 1012.3 1010.5 8.2
19/05:00am 21.4 24.4 20.0 92 0.9 S 4 7 2 4 1012.2 1010.4 8.2
19/04:30am 21.4 23.9 20.2 93 0.8 SSW 7 9 4 5 1011.9 1010.1 8.2
19/04:00am 21.4 24.7 19.9 91 1.0 ESE 2 4 1 2 1011.5 1009.6 8.2
19/03:30am 21.3 24.2 19.9 92 0.9 ESE 4 7 2 4 1011.6 1009.8 8.2
19/03:00am 21.3 23.6 19.8 91 1.0 SE 7 9 4 5 1011.6 1009.8 8.2
19/02:30am 21.7 24.2 20.2 91 1.0 SE 7 13 4 7 1011.8 1010.0 8.2
19/02:00am 22.4 24.9 21.0 92 0.9 ESE 9 15 5 8 1012.0 1010.2 8.2
19/01:30am 22.6 25.5 21.1 91 1.0 ESE 7 13 4 7 1012.8 1011.0 8.0
19/01:00am 23.0 26.1 21.5 91 1.0 ESE 7 13 4 7 1013.4 1011.6 7.8
19/12:30am 23.0 26.2 21.6 92 0.9 SSE 7 13 4 7 1013.6 1011.8 7.8
19/12:00am 23.0 26.4 21.6 92 0.9 ESE 6 9 3 5 1014.0 1012.2 7.8
 
Date/Time
EST
Temp
°C
App
Temp
°C
Dew
Point
Rel
Hum
%
Delta-T
°C
Wind Press
QNH
hPa
Press
MSL
hPa
Rain
since 9 am
mm
Dir
 
Spd
km/h
Gust
km/h
Spd
kts
Gust
kts
18/11:30pm 23.0 26.4 21.6 92 0.9 SE 6 11 3 6 1013.9 1012.1 7.6
18/11:00pm 23.4 27.6 21.8 91 1.1 S 2 7 1 4 1014.7 1012.8 7.6
18/10:30pm 23.3 26.3 21.9 92 0.9 SSW 9 13 5 7 1015.4 1013.6 7.2
18/10:00pm 23.2 26.4 21.6 91 1.1 SW 7 11 4 6 1015.9 1014.1 6.6
18/09:30pm 23.2 26.6 21.6 91 1.1 WSW 6 9 3 5 1015.9 1014.1 6.0
18/09:00pm 23.2 25.1 21.3 89 1.3 SW 13 20 7 11 1015.4 1013.6 5.2
18/08:30pm 24.1 24.3 20.6 81 2.3 WSW 20 35 11 19 1015.4 1013.6 3.2
18/08:16pm 25.3 26.3 21.8 81 2.4 WSW 19 30 10 16 1014.5 1012.6 2.4
18/08:00pm 25.3 25.3 21.6 80 2.5 WSW 24 32 13 17 1012.4 1010.6 2.2
18/07:54pm 25.0 23.6 20.5 76 3.0 WSW 28 46 15 25 1012.0 1010.2 2.0
18/07:49pm 24.9 22.8 19.7 73 3.4 WSW 30 46 16 25 1011.6 1009.8 1.8
18/07:39pm 29.9 27.6 17.7 48 7.8 W 26 50 14 27 1011.0 1009.1 0.0
18/07:30pm 32.3 31.3 13.5 32 11.5 WNW 11 28 6 15 1010.6 1008.7 0.0
18/07:00pm 32.0 32.4 13.7 33 11.2 W 4 4 2 2 1009.0 1007.2 0.0
18/06:30pm 32.8 33.0 11.9 28 12.5 NW 2 6 1 3 1008.7 1006.9 0.0
18/06:00pm 33.3 32.7 11.8 27 12.8 NNW 6 7 3 4 1008.4 1006.6 0.0
18/05:30pm 34.4 33.4 10.9 24 13.9 NNW 7 11 4 6 1007.9 1006.0 0.0
18/05:00pm 34.8 32.2 9.3 21 14.8 NNW 13 22 7 12 1007.5 1005.6 0.0
18/04:30pm 35.8 31.9 8.6 19 15.6 NNW 19 26 10 14 1007.4 1005.5 0.0
18/04:00pm 36.1 32.2 8.8 19 15.8 NW 19 24 10 13 1007.1 1005.2 0.0
18/03:30pm 36.0 31.9 8.7 19 15.7 NW 20 32 11 17 1006.9 1005.0 0.0
18/03:00pm 36.8 33.9 10.9 21 15.5 NW 17 33 9 18 1007.4 1005.5 0.0
18/02:30pm 36.5 33.9 13.3 25 14.3 NNW 19 33 10 18 1008.0 1006.1 0.0
18/02:00pm 36.3 33.3 13.7 25 14.0 NW 22 35 12 19 1008.5 1006.7 0.0
18/01:30pm 35.8 33.6 13.3 26 13.9 NNW 17 26 9 14 1009.0 1007.2 0.0
18/01:00pm 35.6 33.3 13.1 25 13.8 NNW 17 28 9 15 1009.4 1007.6 0.0
18/12:30pm 34.4 32.0 13.8 29 12.7 NW 19 28 10 15 1009.9 1008.1 0.0
18/12:00pm 34.5 31.7 13.3 27 13.0 NNW 20 30 11 16 1010.4 1008.5 0.0
18/11:30am 33.9 31.9 13.9 30 12.3 NNW 17 24 9 13 1010.8 1008.9 0.0
18/11:00am 33.3 31.1 14.8 32 11.5 NNW 20 30 11 16 1011.1 1009.2 0.0
18/10:30am 32.8 30.2 13.9 31 11.6 NNW 20 30 11 16 1011.3 1009.4 0.0
18/10:00am 32.1 30.2 15.1 35 10.6 NNW 19 30 10 16 1011.4 1009.5 0.0
18/09:30am 31.1 29.2 15.1 38 9.9 NNW 19 26 10 14 1011.6 1009.8 0.0
18/09:00am 30.2 28.4 15.5 41 9.2 N 19 28 10 15 1011.7 1009.9 0.0
18/08:30am 29.3 27.6 15.8 44 8.4 N 19 30 10 16 1011.7 1009.9 0.0
18/08:00am 27.9 29.1 18.3 56 6.2 N 9 19 5 10 1011.8 1010.0 0.0
18/07:30am 27.3 28.5 18.3 58 5.8 N 9 15 5 8 1011.9 1010.1 0.0
18/07:00am 26.4 27.8 17.7 58 5.5 NNW 7 11 4 6 1011.8 1010.0 0.0
18/06:30am 26.3 27.6 17.6 58 5.5 N 7 13 4 7 1011.1 1009.2 0.0
18/06:00am 24.5 25.8 18.4 69 3.9 N 9 13 5 7 1010.9 1009.0 0.0
18/05:30am 23.4 25.6 18.3 73 3.2 NNE 4 6 2 3 1010.7 1008.8 0.0
18/05:00am 25.0 26.1 18.0 65 4.5 N 9 13 5 7 1010.0 1008.2 0.0
18/04:30am 24.0 27.0 18.4 71 3.6 CALM 0 0 0 0 1010.0 1008.2 0.0
18/04:00am 25.9 28.6 18.6 64 4.7 WSW 2 4 1 2 1009.6 1007.8 0.0
18/03:30am 26.6 27.8 19.0 63 4.9 N 11 19 6 10 1009.2 1007.4 0.0
18/03:00am 27.2 28.4 19.0 61 5.3 N 11 19 6 10 1008.8 1007.0 0.0
18/02:30am 27.3 28.4 18.9 60 5.5 N 11 15 6 8 1008.6 1006.8 0.0
18/02:00am 27.4 27.9 18.4 58 5.8 NNW 13 19 7 10 1008.5 1006.7 0.0
18/01:30am 25.7 27.2 18.9 66 4.4 NNE 9 13 5 7 1007.6 1005.7 0.0
18/01:00am 26.4 28.5 18.0 60 5.4 N 4 6 2 3 1008.0 1006.1 0.0
18/12:30am 26.1 28.1 18.8 64 4.7 N 6 6 3 3 1008.3 1006.5 0.0
18/12:00am 26.4 28.9 17.2 57 5.8 CALM 0 4 0 2 1008.4 1006.6 0.0
 
Date/Time
EST
Temp
°C
App
Temp
°C
Dew
Point
Rel
Hum
%
Delta-T
°C
Wind Press
QNH
hPa
Press
MSL
hPa
Rain
since 9 am
mm
Dir
 
Spd
km/h
Gust
km/h
Spd
kts
Gust
kts
17/11:30pm 26.3 27.4 17.1 57 5.8 NNE 7 11 4 6 1008.6 1006.8 0.0
17/11:00pm 28.6 30.3 15.2 44 8.3 CALM 0 0 0 0 1008.6 1006.8 0.0
17/10:30pm 29.3 29.9 15.8 44 8.4 NW 7 13 4 7 1008.5 1006.7 0.0
17/10:00pm 30.4 30.3 16.0 41 9.1 NW 11 15 6 8 1008.7 1006.9 0.0
17/09:30pm 30.8 31.0 16.8 43 8.9 NW 11 19 6 10 1008.5 1006.7 0.0
17/09:00pm 30.6 31.7 17.0 44 8.7 WNW 7 9 4 5 1008.1 1006.2 0.0
17/08:30pm 30.6 31.5 16.2 41 9.1 NNW 6 6 3 3 1007.7 1005.8 0.0
17/08:00pm 30.9 32.1 16.9 43 8.9 N 6 7 3 4 1007.5 1005.6 0.0
17/07:30pm 30.5 31.5 16.9 44 8.7 NNW 7 9 4 5 1007.8 1005.9 0.0
17/07:00pm 31.6 32.5 16.0 39 9.9 NW 6 7 3 4 1007.7 1005.8 0.0
17/06:30pm 32.0 32.8 15.9 38 10.2 NW 6 9 3 5 1007.3 1005.4 0.0
17/06:00pm 33.2 34.5 15.2 33 11.3 NW 2 6 1 3 1007.1 1005.2 0.0
17/05:30pm 33.2 33.6 15.2 33 11.3 NW 7 9 4 5 1007.0 1005.1 0.0
17/05:00pm 34.3 34.3 14.2 29 12.5 WNW 7 11 4 6 1007.2 1005.3 0.0
17/04:30pm 35.1 33.7 12.1 25 13.9 NNW 11 17 6 9 1006.2 1004.4 0.0
17/04:00pm 35.2 33.8 13.4 27 13.4 NNW 13 20 7 11 1005.8 1004.0 0.0
17/03:30pm 36.0 34.5 14.1 27 13.6 NNW 15 28 8 15 1006.1 1004.3 0.0
17/03:00pm 36.0 34.8 16.2 31 12.7 N 17 26 9 14 1006.5 1004.6 0.0
17/02:30pm 35.5 34.4 15.3 30 12.8 N 15 26 8 14 1007.0 1005.1 0.0
17/02:00pm 35.0 34.5 16.8 34 11.8 NNW 15 28 8 15 1007.6 1005.7 0.0
17/01:30pm 34.9 34.3 16.7 34 11.7 NNW 15 24 8 13 1008.1 1006.2 0.0
17/01:00pm 34.2 33.5 16.5 34 11.4 NNW 15 24 8 13 1008.5 1006.7 0.0
17/12:30pm 33.6 32.4 16.0 34 11.2 NW 17 28 9 15 1008.8 1007.0 0.0
17/12:00pm 33.9 33.3 18.4 40 10.2 NW 19 28 10 15 1009.0 1007.2 0.0
17/11:30am 32.5 31.9 17.5 40 9.7 NW 17 28 9 15 1009.3 1007.5 0.0
17/11:00am 32.1 31.6 17.9 42 9.2 NNW 17 26 9 14 1009.6 1007.8 0.0
17/10:30am 31.3 30.5 17.2 42 9.0 NNW 17 26 9 14 1009.9 1008.1 0.0
17/10:00am 30.2 27.7 16.2 42 8.8 NW 24 33 13 18 1009.8 1008.0 0.0
17/09:30am 29.7 27.3 16.5 45 8.3 NW 24 33 13 18 1010.0 1008.2 0.0

Other Formats:

Comma delimited format used in spreadsheet applications
http://www.bom.gov.au/fwo/IDQ60801/IDQ60801.94395.axf

JavaScript Object Notation format (JSON) in row-major order
http://www.bom.gov.au/fwo/IDQ60801/IDQ60801.94395.json